Time;durP1;ratioP1;P1;durP2;ratioP2;P2;SDS_P1;SDS_P2;PMS_P1;PMS_P2;Temp;Humidity;BMP_temperature;BMP_pressure;BME280_temperature;BME280_humidity;BME280_pressure;Samples;Min_cycle;Max_cycle;Signal;HPM_P1;HPM_P2
2023/01/20 00:00:30;;;;;;;6.00;4.63;;;-0.30;99.90;;;;;;4969742;28;20567;-73
2023/01/20 00:02:56;;;;;;;5.37;4.30;;;-0.20;99.90;;;;;;4953014;28;20501;-72
2023/01/20 00:05:22;;;;;;;7.93;5.00;;;-0.20;99.90;;;;;;4954921;28;20042;-76
2023/01/20 00:07:47;;;;;;;6.57;4.47;;;-0.20;99.90;;;;;;4968047;28;20046;-76
2023/01/20 00:10:13;;;;;;;6.30;4.90;;;-0.20;99.90;;;;;;4969946;28;20130;-76
2023/01/20 00:12:39;;;;;;;7.50;5.83;;;-0.20;99.90;;;;;;4968092;28;20080;-76
2023/01/20 00:15:06;;;;;;;7.07;5.07;;;-0.20;99.90;;;;;;4950964;28;20046;-76
2023/01/20 00:17:32;;;;;;;6.33;5.40;;;-0.20;99.90;;;;;;4985068;28;20118;-75
2023/01/20 00:19:57;;;;;;;7.07;6.00;;;-0.20;99.90;;;;;;4950731;28;20660;-76
2023/01/20 00:22:26;;;;;;;10.23;6.30;;;-0.10;99.90;;;;;;4952958;28;20373;-76
2023/01/20 00:24:52;;;;;;;7.90;6.97;;;-0.10;99.90;;;;;;4988644;28;20061;-76
2023/01/20 00:27:18;;;;;;;7.93;5.97;;;-0.10;99.90;;;;;;4971252;28;20400;-76
2023/01/20 00:29:43;;;;;;;7.97;6.87;;;-0.10;99.90;;;;;;4955095;28;20503;-76
2023/01/20 00:32:10;;;;;;;9.23;7.10;;;-0.10;99.90;;;;;;4973483;28;20038;-73
2023/01/20 00:34:36;;;;;;;9.50;7.50;;;0.00;99.90;;;;;;4956432;28;20085;-73
2023/01/20 00:37:02;;;;;;;9.43;7.63;;;0.00;99.90;;;;;;4971868;28;20429;-73
2023/01/20 00:39:27;;;;;;;11.17;9.37;;;0.00;99.90;;;;;;4986984;28;20492;-72
2023/01/20 00:41:53;;;;;;;10.60;9.03;;;0.00;99.90;;;;;;4970741;28;20484;-73
2023/01/20 00:44:19;;;;;;;11.93;10.63;;;0.10;99.90;;;;;;4987725;28;20134;-73
2023/01/20 00:46:45;;;;;;;13.57;11.97;;;0.00;99.90;;;;;;4968817;28;20116;-73
2023/01/20 00:49:11;;;;;;;16.33;12.60;;;0.10;99.90;;;;;;4970103;28;20614;-73
2023/01/20 00:51:36;;;;;;;20.07;16.27;;;0.20;99.90;;;;;;4970021;28;20053;-76
2023/01/20 00:54:02;;;;;;;17.90;15.37;;;0.20;99.90;;;;;;4987993;28;21571;-76
2023/01/20 00:56:28;;;;;;;19.27;16.17;;;0.30;99.90;;;;;;4985744;28;20508;-76
2023/01/20 00:58:54;;;;;;;20.57;17.27;;;0.30;99.90;;;;;;4987163;28;20562;-73
2023/01/20 01:01:21;;;;;;;25.60;20.30;;;0.40;99.90;;;;;;4971127;28;20038;-73
2023/01/20 01:03:47;;;;;;;26.27;20.23;;;0.40;99.90;;;;;;4966821;28;20476;-73
2023/01/20 01:06:15;;;;;;;23.13;19.67;;;0.40;99.90;;;;;;4970600;28;20037;-73
2023/01/20 01:08:41;;;;;;;31.07;23.80;;;0.50;99.90;;;;;;4982675;28;20053;-72
2023/01/20 01:11:08;;;;;;;33.63;24.53;;;0.50;99.90;;;;;;4968903;28;20084;-73
2023/01/20 01:13:40;;;;;;;36.17;26.50;;;0.50;99.90;;;;;;4970829;28;20065;-75
2023/01/20 01:16:11;;;;;;;35.70;25.00;;;0.60;99.90;;;;;;4983872;28;20503;-73
2023/01/20 01:18:37;;;;;;;35.27;25.57;;;0.60;99.90;;;;;;4987417;28;20041;-76
2023/01/20 01:21:08;;;;;;;36.73;26.20;;;0.50;99.90;;;;;;4969374;28;20420;-76
2023/01/20 01:23:34;;;;;;;42.97;29.93;;;0.60;99.90;;;;;;4970501;28;20525;-76
2023/01/20 01:26:00;;;;;;;46.77;31.50;;;0.60;99.90;;;;;;4967678;28;20036;-75
2023/01/20 01:28:26;;;;;;;44.43;30.20;;;0.70;99.90;;;;;;4954570;28;20041;-76
2023/01/20 01:30:52;;;;;;;45.40;30.90;;;0.70;99.90;;;;;;4966168;28;20080;-76
2023/01/20 01:33:17;;;;;;;38.67;29.17;;;0.70;99.90;;;;;;4987387;28;20049;-76
2023/01/20 01:35:52;;;;;;;38.87;28.97;;;0.80;99.90;;;;;;4967188;28;20098;-75
2023/01/20 01:38:18;;;;;;;34.67;28.07;;;0.80;99.90;;;;;;4971848;28;20096;-76
2023/01/20 01:40:48;;;;;;;31.07;26.67;;;0.80;99.90;;;;;;4969811;28;20034;-76
2023/01/20 01:43:23;;;;;;;32.55;26.75;;;0.80;99.90;;;;;;4987291;28;20041;-76
2023/01/20 01:45:49;;;;;;;32.03;26.03;;;0.80;99.90;;;;;;4983811;28;22112;-76
2023/01/20 01:48:17;;;;;;;30.00;25.00;;;0.80;99.90;;;;;;4986338;28;20038;-76
2023/01/20 01:50:50;;;;;;;29.83;24.63;;;0.80;99.90;;;;;;4982843;28;20046;-76
2023/01/20 01:53:16;;;;;;;29.20;25.07;;;0.80;99.90;;;;;;4984245;28;20056;-73
2023/01/20 01:55:48;;;;;;;27.63;24.00;;;0.90;99.90;;;;;;4986951;28;20045;-73
2023/01/20 01:58:17;;;;;;;27.00;23.40;;;0.80;99.90;;;;;;4968561;28;20045;-73
2023/01/20 02:00:44;;;;;;;28.33;25.13;;;0.90;99.90;;;;;;4986867;28;20041;-73
2023/01/20 02:03:11;;;;;;;35.87;26.73;;;0.90;99.90;;;;;;4985264;28;20368;-73
2023/01/20 02:05:38;;;;;;;30.47;24.87;;;0.90;99.90;;;;;;4969670;28;20088;-73
2023/01/20 02:08:06;;;;;;;30.00;26.33;;;0.90;99.90;;;;;;4985317;28;20522;-73
2023/01/20 02:10:31;;;;;;;32.50;26.33;;;0.80;99.90;;;;;;4948880;28;20060;-74
2023/01/20 02:12:59;;;;;;;34.73;27.60;;;0.80;99.90;;;;;;4984288;28;20045;-73
2023/01/20 02:15:38;;;;;;;33.30;27.73;;;0.90;99.90;;;;;;4952712;28;20273;-73
2023/01/20 02:18:37;;;;;;;38.73;30.20;;;0.80;99.90;;;;;;4984356;28;20049;-73
2023/01/20 02:21:16;;;;;;;39.93;30.77;;;0.80;99.90;;;;;;4984468;28;20374;-73
2023/01/20 02:24:17;;;;;;;41.80;31.60;;;0.80;99.90;;;;;;4968920;28;20053;-73
2023/01/20 02:27:22;;;;;;;39.13;30.53;;;0.80;99.90;;;;;;4987157;28;20053;-73
2023/01/20 02:30:25;;;;;;;40.33;31.63;;;0.80;99.90;;;;;;4917964;28;20456;-74
2023/01/20 02:33:16;;;;;;;34.77;29.33;;;0.80;99.90;;;;;;4986093;28;20045;-73
2023/01/20 02:35:45;;;;;;;35.43;29.43;;;0.70;99.90;;;;;;4962495;28;20045;-73
2023/01/20 02:38:39;;;;;;;36.13;30.60;;;0.80;99.90;;;;;;4972145;28;20168;-73
2023/01/20 02:41:08;;;;;;;37.23;30.87;;;0.70;99.90;;;;;;4987411;28;20189;-74
2023/01/20 02:43:48;;;;;;;36.67;30.20;;;0.70;99.90;;;;;;4974041;28;20085;-74
2023/01/20 02:46:36;;;;;;;37.90;31.05;;;0.70;99.90;;;;;;4986252;28;20034;-73
2023/01/20 02:49:20;;;;;;;38.83;31.33;;;0.70;99.90;;;;;;4985503;28;20045;-73
2023/01/20 02:52:14;;;;;;;40.57;32.13;;;0.70;99.90;;;;;;4971806;28;20583;-73
2023/01/20 02:54:46;;;;;;;38.03;29.27;;;0.70;99.90;;;;;;4969415;28;20045;-74
2023/01/20 02:57:17;;;;;;;40.60;30.43;;;0.70;99.90;;;;;;5004937;28;20054;-73
2023/01/20 02:59:47;;;;;;;41.23;31.87;;;0.70;99.90;;;;;;4972833;28;20125;-73
2023/01/20 03:02:23;;;;;;;37.30;31.23;;;0.70;99.90;;;;;;4981278;28;20048;-77
2023/01/20 03:05:05;;;;;;;43.20;32.67;;;0.70;99.90;;;;;;4965710;28;20042;-76
2023/01/20 03:07:37;;;;;;;41.37;33.17;;;0.70;99.90;;;;;;4973259;28;20049;-76
2023/01/20 03:10:08;;;;;;;39.47;31.73;;;0.70;99.90;;;;;;4989034;28;20042;-77
2023/01/20 03:12:47;;;;;;;45.47;34.40;;;0.60;99.90;;;;;;4988114;28;20057;-77
2023/01/20 03:15:21;;;;;;;43.97;34.10;;;0.60;99.90;;;;;;4986898;28;20057;-76
2023/01/20 03:17:47;;;;;;;44.30;33.07;;;0.60;99.90;;;;;;4974265;28;20042;-77
2023/01/20 03:20:16;;;;;;;46.83;32.37;;;0.60;99.90;;;;;;4953947;28;20532;-77
2023/01/20 03:22:42;;;;;;;48.53;34.57;;;0.60;99.90;;;;;;4988962;28;20631;-76
2023/01/20 03:25:10;;;;;;;43.53;31.70;;;0.60;99.90;;;;;;4971039;28;20520;-77
2023/01/20 03:27:36;;;;;;;41.37;30.13;;;0.60;99.90;;;;;;4989743;28;20038;-77
2023/01/20 03:30:05;;;;;;;43.00;32.00;;;0.60;99.90;;;;;;4973904;28;20042;-76
2023/01/20 03:32:31;;;;;;;49.67;32.20;;;0.60;99.90;;;;;;4969504;28;20046;-77
2023/01/20 03:34:58;;;;;;;50.00;33.37;;;0.60;99.90;;;;;;4970907;28;20042;-76
2023/01/20 03:37:24;;;;;;;48.17;32.33;;;0.60;99.90;;;;;;4984762;28;20045;-77
2023/01/20 03:39:51;;;;;;;49.07;32.10;;;0.60;99.90;;;;;;4965021;28;20722;-77
2023/01/20 03:42:37;;;;;;;46.83;31.60;;;0.70;99.90;;;;;;4968586;28;20405;-76
2023/01/20 03:45:11;;;;;;;46.97;31.40;;;0.70;99.90;;;;;;4969247;28;20092;-77
2023/01/20 03:47:43;;;;;;;48.70;31.97;;;0.60;99.90;;;;;;4986186;28;20052;-77
2023/01/20 03:50:18;;;;;;;49.37;32.13;;;0.60;99.90;;;;;;4987108;28;20125;-76
2023/01/20 03:52:53;;;;;;;46.53;31.27;;;0.60;99.90;;;;;;4976018;28;20601;-77
2023/01/20 03:55:28;;;;;;;51.10;32.90;;;0.60;99.90;;;;;;4984629;28;20057;-77
2023/01/20 03:58:08;;;;;;;46.37;31.03;;;0.60;99.90;;;;;;4986501;28;20049;-77
2023/01/20 04:00:38;;;;;;;44.17;29.67;;;0.60;99.90;;;;;;4986115;28;20165;-73
2023/01/20 04:03:14;;;;;;;50.88;31.75;;;0.70;99.90;;;;;;4987136;28;20184;-74
2023/01/20 04:05:41;;;;;;;47.97;30.77;;;0.60;99.90;;;;;;4967608;28;20045;-74
2023/01/20 04:08:09;;;;;;;42.50;29.83;;;0.60;99.90;;;;;;4955379;28;20050;-75
2023/01/20 04:10:41;;;;;;;47.37;30.60;;;0.60;99.90;;;;;;4983406;28;20518;-76
2023/01/20 04:13:07;;;;;;;43.93;30.00;;;0.70;99.90;;;;;;4968735;28;20042;-79
2023/01/20 04:15:40;;;;;;;45.87;30.17;;;0.60;99.90;;;;;;4985383;28;20042;-76
2023/01/20 04:18:18;;;;;;;45.70;29.13;;;0.70;99.90;;;;;;4968927;28;20041;-76
2023/01/20 04:20:47;;;;;;;47.30;30.33;;;0.70;99.90;;;;;;4969802;28;20045;-76
2023/01/20 04:23:23;;;;;;;39.67;27.60;;;0.70;99.90;;;;;;4983608;28;20149;-76
2023/01/20 04:25:49;;;;;;;40.20;27.37;;;0.70;99.90;;;;;;4985404;28;20084;-76
2023/01/20 04:28:14;;;;;;;42.17;28.80;;;0.70;99.90;;;;;;4983768;28;20049;-76
2023/01/20 04:30:40;;;;;;;37.17;26.73;;;0.70;99.90;;;;;;4955736;28;20041;-76
2023/01/20 04:33:06;;;;;;;42.20;29.20;;;0.70;99.90;;;;;;4951573;28;20484;-76
2023/01/20 04:35:32;;;;;;;43.20;29.93;;;0.70;99.90;;;;;;4970394;28;20104;-76
2023/01/20 04:37:58;;;;;;;42.53;29.20;;;0.70;99.90;;;;;;4982106;28;20053;-76
2023/01/20 04:40:23;;;;;;;43.33;29.30;;;0.70;99.90;;;;;;4984448;28;20053;-76
2023/01/20 04:42:50;;;;;;;44.57;29.20;;;0.80;99.90;;;;;;4968785;28;20609;-76
2023/01/20 04:45:16;;;;;;;38.83;28.50;;;0.70;99.90;;;;;;4969982;28;20050;-76
2023/01/20 04:47:43;;;;;;;43.57;29.70;;;0.70;99.90;;;;;;4966471;28;20034;-75
2023/01/20 04:50:10;;;;;;;37.27;26.63;;;0.70;99.90;;;;;;4984569;28;20049;-75
2023/01/20 04:52:36;;;;;;;41.03;28.57;;;0.70;99.90;;;;;;4984905;28;20158;-75
2023/01/20 04:55:02;;;;;;;40.93;29.10;;;0.70;99.90;;;;;;4968190;28;20037;-72
2023/01/20 04:57:28;;;;;;;41.33;30.43;;;0.70;99.90;;;;;;4951887;28;20065;-72
2023/01/20 04:59:53;;;;;;;45.83;30.10;;;0.70;99.90;;;;;;4953454;28;20038;-75
2023/01/20 05:02:37;;;;;;;42.60;30.63;;;0.70;99.90;;;;;;4961162;28;20046;-75
2023/01/20 05:05:03;;;;;;;40.17;30.00;;;0.70;99.90;;;;;;4980519;28;20073;-75
2023/01/20 05:07:29;;;;;;;37.97;28.37;;;0.70;99.90;;;;;;4952511;28;20081;-72
2023/01/20 05:09:55;;;;;;;40.30;29.30;;;0.70;99.90;;;;;;4986487;28;20745;-72
2023/01/20 05:12:20;;;;;;;40.83;28.83;;;0.80;99.90;;;;;;4953040;28;20045;-72
2023/01/20 05:14:46;;;;;;;42.27;30.33;;;0.70;99.90;;;;;;4969911;28;20050;-72
2023/01/20 05:17:12;;;;;;;42.50;30.77;;;0.70;99.90;;;;;;4984370;28;20046;-76
2023/01/20 05:19:39;;;;;;;41.23;30.37;;;0.70;99.90;;;;;;4969543;28;20544;-76
2023/01/20 05:22:05;;;;;;;42.57;30.47;;;0.70;99.90;;;;;;4985855;28;20046;-75
2023/01/20 05:24:31;;;;;;;42.13;30.43;;;0.70;99.90;;;;;;4971086;28;20065;-75
2023/01/20 05:27:00;;;;;;;38.60;28.80;;;0.70;99.90;;;;;;4951702;28;20350;-75
2023/01/20 05:29:27;;;;;;;41.10;30.27;;;0.70;99.90;;;;;;4975205;28;20709;-75
2023/01/20 05:31:53;;;;;;;39.87;29.90;;;0.70;99.90;;;;;;4967866;28;20049;-75
2023/01/20 05:34:19;;;;;;;41.30;30.57;;;0.80;99.90;;;;;;4984466;28;20057;-75
2023/01/20 05:36:45;;;;;;;38.70;29.73;;;0.70;99.90;;;;;;4969294;28;20149;-75
2023/01/20 05:39:10;;;;;;;42.07;31.67;;;0.70;99.90;;;;;;4984893;28;20050;-74
2023/01/20 05:41:36;;;;;;;39.43;29.77;;;0.70;99.90;;;;;;4967519;28;20710;-75
2023/01/20 05:44:02;;;;;;;38.43;30.60;;;0.70;99.90;;;;;;4951693;28;20046;-75
2023/01/20 05:46:28;;;;;;;40.40;31.80;;;0.70;99.90;;;;;;4969586;28;20073;-75
2023/01/20 05:48:53;;;;;;;39.20;30.37;;;0.70;99.90;;;;;;4968703;28;20385;-76
2023/01/20 05:51:19;;;;;;;37.40;30.53;;;0.70;99.90;;;;;;4956766;28;20581;-75
2023/01/20 05:53:45;;;;;;;41.00;31.17;;;0.70;99.90;;;;;;4953424;28;20089;-76
2023/01/20 05:56:14;;;;;;;45.53;33.93;;;0.70;99.90;;;;;;4960522;28;20052;-76
2023/01/20 05:58:40;;;;;;;44.40;32.63;;;0.70;99.90;;;;;;4955043;28;20503;-75
2023/01/20 06:01:12;;;;;;;42.43;31.83;;;0.70;99.90;;;;;;4984184;28;20072;-75
2023/01/20 06:03:38;;;;;;;44.77;32.97;;;0.70;99.90;;;;;;4984220;28;20135;-75
2023/01/20 06:06:07;;;;;;;45.57;33.10;;;0.70;99.90;;;;;;4986053;28;20512;-75
2023/01/20 06:08:33;;;;;;;43.57;32.43;;;0.70;99.90;;;;;;4967763;28;20060;-78
2023/01/20 06:10:59;;;;;;;47.33;34.27;;;0.70;99.90;;;;;;4968571;28;20045;-76
2023/01/20 06:13:25;;;;;;;47.47;35.73;;;0.70;99.90;;;;;;4984221;28;20034;-76
2023/01/20 06:15:52;;;;;;;49.40;34.10;;;0.70;99.90;;;;;;4969628;28;20176;-76
2023/01/20 06:18:18;;;;;;;47.07;35.23;;;0.70;99.90;;;;;;4968234;28;20610;-75
2023/01/20 06:20:44;;;;;;;45.83;34.20;;;0.70;99.90;;;;;;4968673;28;20070;-75
2023/01/20 06:23:10;;;;;;;46.13;34.93;;;0.70;99.90;;;;;;4981299;28;20064;-74
2023/01/20 06:25:36;;;;;;;47.77;36.37;;;0.70;99.90;;;;;;4964676;28;20872;-72
2023/01/20 06:28:02;;;;;;;48.90;35.37;;;0.70;99.90;;;;;;4961133;28;20042;-72
2023/01/20 06:30:27;;;;;;;49.00;35.23;;;0.80;99.90;;;;;;4954837;28;20133;-72
2023/01/20 06:32:53;;;;;;;53.13;37.03;;;0.70;99.90;;;;;;4964914;28;20079;-72
2023/01/20 06:35:20;;;;;;;50.13;35.93;;;0.70;99.90;;;;;;4981309;28;20061;-72
2023/01/20 06:37:46;;;;;;;49.83;36.03;;;0.80;99.90;;;;;;4960248;28;20135;-72
2023/01/20 06:40:12;;;;;;;50.67;37.30;;;0.70;99.90;;;;;;4963991;28;20057;-72
2023/01/20 06:42:38;;;;;;;51.87;37.00;;;0.70;99.90;;;;;;4943681;28;20489;-73
2023/01/20 06:45:07;;;;;;;48.50;35.47;;;0.70;99.90;;;;;;4961854;28;20125;-72
2023/01/20 06:47:33;;;;;;;51.57;38.43;;;0.70;99.90;;;;;;4961853;28;20034;-72
2023/01/20 06:49:58;;;;;;;50.93;37.73;;;0.70;99.90;;;;;;4960800;28;20060;-72
2023/01/20 06:52:24;;;;;;;50.53;36.40;;;0.80;99.90;;;;;;4961426;28;20153;-73
2023/01/20 06:54:50;;;;;;;52.97;38.83;;;0.80;99.90;;;;;;4959522;28;20034;-72
2023/01/20 06:57:16;;;;;;;53.63;38.67;;;0.80;99.90;;;;;;4960989;28;20481;-72
2023/01/20 06:59:42;;;;;;;53.73;38.93;;;0.80;99.90;;;;;;4979105;28;20420;-72
2023/01/20 07:02:10;;;;;;;51.80;38.33;;;0.80;99.90;;;;;;4945914;28;20652;-73
2023/01/20 07:04:36;;;;;;;56.70;40.17;;;0.80;99.90;;;;;;4979094;28;20058;-72
2023/01/20 07:07:02;;;;;;;47.30;36.70;;;0.80;99.90;;;;;;4960281;28;20120;-72
2023/01/20 07:09:28;;;;;;;52.23;38.67;;;0.80;99.90;;;;;;4960465;28;20050;-72
2023/01/20 07:11:54;;;;;;;55.57;41.13;;;0.80;99.90;;;;;;4961430;28;20132;-72
2023/01/20 07:14:20;;;;;;;56.53;39.17;;;0.80;99.90;;;;;;4950608;28;20148;-72
2023/01/20 07:16:46;;;;;;;52.33;38.83;;;0.80;99.90;;;;;;4980255;28;20489;-72
2023/01/20 07:19:12;;;;;;;51.73;39.17;;;0.90;99.90;;;;;;4982333;28;20046;-72
2023/01/20 07:21:38;;;;;;;52.87;38.93;;;0.80;99.90;;;;;;4948029;28;20202;-75
2023/01/20 07:24:08;;;;;;;50.07;38.97;;;0.80;99.90;;;;;;4981452;28;20042;-75
2023/01/20 07:26:34;;;;;;;54.15;41.90;;;0.90;99.90;;;;;;4966390;28;20440;-74
2023/01/20 07:29:00;;;;;;;56.67;39.77;;;0.90;99.90;;;;;;4966534;28;20074;-75
2023/01/20 07:31:28;;;;;;;53.37;41.17;;;0.80;99.90;;;;;;4963137;28;20043;-74
2023/01/20 07:33:55;;;;;;;54.87;41.47;;;0.90;99.90;;;;;;4982457;28;20492;-72
2023/01/20 07:36:21;;;;;;;52.73;39.53;;;0.80;99.90;;;;;;4976733;28;20624;-73
2023/01/20 07:38:48;;;;;;;52.37;39.17;;;0.80;99.90;;;;;;4965417;28;20094;-73
2023/01/20 07:41:15;;;;;;;54.30;40.30;;;0.80;99.90;;;;;;4961732;28;20564;-75
2023/01/20 07:43:45;;;;;;;54.33;42.03;;;0.80;99.90;;;;;;4982754;28;20133;-75
2023/01/20 07:46:12;;;;;;;53.55;40.95;;;0.90;99.90;;;;;;4948137;28;20061;-75
2023/01/20 07:48:38;;;;;;;58.00;43.03;;;0.90;99.90;;;;;;4983573;28;20038;-75
2023/01/20 07:51:07;;;;;;;55.83;41.13;;;0.90;99.90;;;;;;4982698;28;20338;-75
2023/01/20 07:53:39;;;;;;;55.13;41.77;;;0.90;99.90;;;;;;4964524;28;20053;-76
2023/01/20 07:56:09;;;;;;;60.90;43.07;;;0.90;99.90;;;;;;4981762;28;20050;-75
2023/01/20 07:58:38;;;;;;;58.65;44.03;;;0.90;99.90;;;;;;4981951;28;20031;-76
2023/01/20 08:01:13;;;;;;;58.70;44.13;;;0.90;99.90;;;;;;4980772;28;20045;-75
2023/01/20 08:03:39;;;;;;;56.83;42.30;;;0.90;99.90;;;;;;4963235;28;20047;-75
2023/01/20 08:06:07;;;;;;;56.93;42.20;;;0.90;99.90;;;;;;4971209;28;20277;-75
2023/01/20 08:08:34;;;;;;;61.03;43.57;;;0.90;99.90;;;;;;4979017;28;20065;-75
2023/01/20 08:11:01;;;;;;;54.80;43.03;;;0.90;99.90;;;;;;4966611;28;20081;-75
2023/01/20 08:13:27;;;;;;;60.83;43.10;;;1.00;99.90;;;;;;4967365;28;20082;-75
2023/01/20 08:15:54;;;;;;;57.00;42.37;;;0.90;99.90;;;;;;4984265;28;20493;-75
2023/01/20 08:18:20;;;;;;;59.57;43.43;;;1.00;99.90;;;;;;4960778;28;20723;-75
2023/01/20 08:20:46;;;;;;;56.43;41.33;;;1.00;99.90;;;;;;4994202;28;20042;-75
2023/01/20 08:23:12;;;;;;;59.23;44.40;;;1.00;99.90;;;;;;4963918;28;20066;-75
2023/01/20 08:25:37;;;;;;;62.00;43.73;;;1.00;99.90;;;;;;4980573;28;20065;-75
2023/01/20 08:28:04;;;;;;;57.77;42.60;;;1.00;99.90;;;;;;4962332;28;20050;-75
2023/01/20 08:30:30;;;;;;;60.90;42.80;;;1.00;99.90;;;;;;4946712;28;20050;-75
2023/01/20 08:32:56;;;;;;;59.30;43.73;;;1.00;99.90;;;;;;4979880;28;20038;-75
2023/01/20 08:35:21;;;;;;;59.60;42.40;;;1.00;99.90;;;;;;4965581;28;20050;-75
2023/01/20 08:37:47;;;;;;;57.27;42.03;;;1.10;99.90;;;;;;4962100;28;20050;-75
2023/01/20 08:40:13;;;;;;;58.13;42.73;;;1.00;99.90;;;;;;4966175;28;20125;-75
2023/01/20 08:42:39;;;;;;;54.50;41.80;;;1.00;99.90;;;;;;4964532;28;20039;-75
2023/01/20 08:45:07;;;;;;;53.63;39.17;;;1.00;99.90;;;;;;4964471;28;20070;-75
2023/01/20 08:47:38;;;;;;;54.43;39.93;;;1.00;99.90;;;;;;4965949;28;20122;-75
2023/01/20 08:50:05;;;;;;;55.83;41.10;;;1.00;99.90;;;;;;4981945;28;20062;-75
2023/01/20 08:52:32;;;;;;;55.07;39.50;;;1.00;99.90;;;;;;4980095;28;20050;-75
2023/01/20 08:54:58;;;;;;;54.17;40.37;;;1.00;99.90;;;;;;4966324;28;20524;-75
2023/01/20 08:57:25;;;;;;;59.03;42.57;;;1.10;99.90;;;;;;4949693;28;20863;-75
2023/01/20 08:59:51;;;;;;;59.30;41.10;;;1.00;99.90;;;;;;4966172;28;20042;-74
2023/01/20 09:02:17;;;;;;;58.20;41.73;;;1.10;99.90;;;;;;4965737;28;20042;-75
2023/01/20 09:04:43;;;;;;;56.23;41.07;;;1.10;99.90;;;;;;4963439;28;20398;-75
2023/01/20 09:07:12;;;;;;;61.53;43.50;;;1.10;99.90;;;;;;4934821;28;21196;-75
2023/01/20 09:09:38;;;;;;;60.03;43.13;;;1.10;99.90;;;;;;4968689;28;20170;-75
2023/01/20 09:12:05;;;;;;;64.97;44.17;;;1.20;99.90;;;;;;4983681;28;20473;-75
2023/01/20 09:14:31;;;;;;;63.67;43.83;;;1.10;99.90;;;;;;4965619;28;20038;-75
2023/01/20 09:16:57;;;;;;;60.77;43.00;;;1.10;99.90;;;;;;4948106;28;20070;-76
2023/01/20 09:19:23;;;;;;;63.03;44.17;;;1.20;99.90;;;;;;4983555;28;20113;-75
2023/01/20 09:21:48;;;;;;;63.50;44.93;;;1.20;99.90;;;;;;4966104;28;20054;-75
2023/01/20 09:24:14;;;;;;;66.00;44.07;;;1.20;99.90;;;;;;4978113;28;20050;-72
2023/01/20 09:26:40;;;;;;;64.73;43.23;;;1.20;99.90;;;;;;4955062;28;20182;-76
2023/01/20 09:29:12;;;;;;;66.33;43.67;;;1.20;99.90;;;;;;4964625;28;20054;-76
2023/01/20 09:31:42;;;;;;;64.03;43.50;;;1.20;99.90;;;;;;4980478;28;20058;-75
2023/01/20 09:34:09;;;;;;;61.00;41.90;;;1.10;99.90;;;;;;4975982;28;20050;-76
2023/01/20 09:36:35;;;;;;;66.97;44.47;;;1.20;99.90;;;;;;4966920;28;20042;-75
2023/01/20 09:44:41;;;;;;;66.87;44.50;;;1.20;99.90;;;;;;4976047;28;20066;-76
2023/01/20 09:47:27;;;;;;;62.20;41.93;;;1.20;99.90;;;;;;4979192;28;20081;-76
2023/01/20 09:53:51;;;;;;;63.47;42.73;;;1.20;99.90;;;;;;4980022;28;20062;-75
2023/01/20 09:56:21;;;;;;;62.67;40.67;;;1.20;99.90;;;;;;4988279;28;20065;-75
2023/01/20 09:58:47;;;;;;;;;;;1.20;99.90;;;;;;4981665;28;20291;-76
2023/01/20 10:01:29;;;;;;;59.23;40.13;;;1.20;99.90;;;;;;4981121;28;19987;-75
2023/01/20 10:04:02;;;;;;;57.67;38.43;;;1.20;99.90;;;;;;4986521;28;20417;-73
2023/01/20 10:06:45;;;;;;;57.97;39.53;;;1.20;99.90;;;;;;4967505;28;20058;-72
2023/01/20 10:09:36;;;;;;;57.90;39.43;;;1.30;99.90;;;;;;4963322;28;20410;-73
2023/01/20 10:12:36;;;;;;;56.37;39.20;;;1.30;99.90;;;;;;4967499;28;20381;-72
2023/01/20 10:15:11;;;;;;;55.53;37.97;;;1.30;99.90;;;;;;4967113;28;20132;-72
2023/01/20 10:18:18;;;;;;;59.53;39.67;;;1.30;99.90;;;;;;4941360;28;21444;-72
2023/01/20 10:21:08;;;;;;;57.37;38.57;;;1.40;99.90;;;;;;4923395;29;20076;-72
2023/01/20 10:23:52;;;;;;;53.43;36.97;;;1.40;99.90;;;;;;4964830;28;20042;-73
2023/01/20 10:26:37;;;;;;;56.27;39.23;;;1.40;99.90;;;;;;4981882;28;20054;-72
2023/01/20 10:29:09;;;;;;;62.40;41.70;;;1.40;99.90;;;;;;4973762;28;20131;-72
2023/01/20 10:31:46;;;;;;;59.83;40.20;;;1.50;99.90;;;;;;4965137;28;20575;-72
2023/01/20 10:34:17;;;;;;;63.03;42.27;;;1.50;99.90;;;;;;4983502;28;20050;-72
2023/01/20 10:36:49;;;;;;;57.43;38.80;;;1.50;99.90;;;;;;4966481;28;20042;-72
2023/01/20 10:39:34;;;;;;;58.00;39.37;;;1.50;99.90;;;;;;4983732;28;20046;-72
2023/01/20 10:42:10;;;;;;;57.87;38.47;;;1.50;99.90;;;;;;4959271;28;20494;-72
2023/01/20 10:44:36;;;;;;;55.70;37.10;;;1.50;99.90;;;;;;4992643;28;20138;-72
2023/01/20 10:47:40;;;;;;;58.47;36.33;;;1.50;99.90;;;;;;4964602;28;20034;-72
2023/01/20 10:50:20;;;;;;;54.30;37.97;;;1.50;99.90;;;;;;5001268;28;20129;-75
2023/01/20 10:52:53;;;;;;;50.07;34.93;;;1.40;99.90;;;;;;4988061;28;20050;-76
2023/01/20 10:55:28;;;;;;;53.07;36.60;;;1.50;99.90;;;;;;4988767;28;20057;-75
2023/01/20 10:58:12;;;;;;;49.03;34.83;;;1.50;99.90;;;;;;4970579;28;20050;-76
2023/01/20 11:00:40;;;;;;;55.67;37.90;;;1.50;99.90;;;;;;4960675;28;20486;-75
2023/01/20 11:03:09;;;;;;;56.50;37.37;;;1.40;99.90;;;;;;4962225;28;20101;-76
2023/01/20 11:05:37;;;;;;;51.20;36.78;;;1.50;99.90;;;;;;4986143;28;20034;-75
2023/01/20 11:08:14;;;;;;;53.13;36.60;;;1.50;99.90;;;;;;4953088;28;20053;-75
2023/01/20 11:10:40;;;;;;;51.50;37.47;;;1.50;99.90;;;;;;4973567;28;20481;-75
2023/01/20 11:13:09;;;;;;;53.30;36.50;;;1.40;99.90;;;;;;4966783;28;20481;-75
2023/01/20 11:15:39;;;;;;;49.77;35.03;;;1.50;99.90;;;;;;4952242;28;20048;-75
2023/01/20 11:18:14;;;;;;;50.75;35.88;;;1.50;99.90;;;;;;4983762;28;20050;-74
2023/01/20 11:20:45;;;;;;;48.83;34.57;;;1.50;99.90;;;;;;4977841;28;20053;-75
2023/01/20 11:23:46;;;;;;;51.23;35.47;;;1.50;99.90;;;;;;4980316;28;20054;-75
2023/01/20 11:26:37;;;;;;;50.10;35.33;;;1.50;99.90;;;;;;4958376;28;20409;-75
2023/01/20 11:29:08;;;;;;;51.90;35.73;;;1.50;99.90;;;;;;4967655;28;20048;-75
2023/01/20 11:31:51;;;;;;;49.57;35.33;;;1.50;99.90;;;;;;4964562;28;20038;-75
2023/01/20 11:34:35;;;;;;;51.47;35.90;;;1.50;99.90;;;;;;4961099;28;20501;-75
2023/01/20 11:37:04;;;;;;;50.83;35.03;;;1.50;99.90;;;;;;4983724;28;20038;-75
2023/01/20 11:39:35;;;;;;;53.23;36.17;;;1.50;99.90;;;;;;4966764;28;20097;-75
2023/01/20 11:42:23;;;;;;;52.40;37.33;;;1.50;99.90;;;;;;4983644;28;20527;-75
2023/01/20 11:45:01;;;;;;;49.27;35.67;;;1.60;99.90;;;;;;4961599;28;20050;-75
2023/01/20 11:47:32;;;;;;;52.83;37.33;;;1.50;99.90;;;;;;4984022;28;20058;-75
2023/01/20 11:50:03;;;;;;;53.37;35.30;;;1.50;99.90;;;;;;4968268;28;20125;-75
2023/01/20 11:52:34;;;;;;;50.70;35.17;;;1.60;99.90;;;;;;4976933;28;20247;-75
2023/01/20 11:55:20;;;;;;;50.73;35.73;;;1.60;99.90;;;;;;4966181;28;20046;-76
2023/01/20 11:57:59;;;;;;;48.70;34.43;;;1.60;99.90;;;;;;4959595;28;20517;-75
2023/01/20 12:00:36;;;;;;;52.63;36.63;;;1.60;99.90;;;;;;4983180;28;20313;-75
2023/01/20 12:03:27;;;;;;;50.03;36.57;;;1.60;99.90;;;;;;4983130;28;20050;-72
2023/01/20 12:06:23;;;;;;;50.70;36.60;;;1.60;99.90;;;;;;4978400;28;20571;-72
2023/01/20 12:08:51;;;;;;;48.80;34.50;;;1.70;99.90;;;;;;4966776;28;20035;-72
2023/01/20 12:11:40;;;;;;;51.97;35.93;;;1.70;99.90;;;;;;4983509;28;20050;-76
2023/01/20 12:14:31;;;;;;;51.90;35.97;;;1.70;99.90;;;;;;4984069;28;20046;-75
2023/01/20 12:17:05;;;;;;;52.92;36.00;;;1.70;99.90;;;;;;4966017;28;20042;-75
2023/01/20 12:20:00;;;;;;;51.97;35.53;;;1.70;99.90;;;;;;4993944;28;20058;-75
2023/01/20 12:22:40;;;;;;;57.07;37.73;;;1.60;99.90;;;;;;4975543;28;20054;-76
2023/01/20 12:25:19;;;;;;;52.97;35.43;;;1.60;99.90;;;;;;4982982;28;20536;-78
2023/01/20 12:28:09;;;;;;;51.40;36.70;;;1.60;99.90;;;;;;4982072;28;20050;-76
2023/01/20 12:30:55;;;;;;;50.03;35.20;;;1.60;99.90;;;;;;4968362;28;20057;-76
2023/01/20 12:33:31;;;;;;;49.33;35.40;;;1.60;99.90;;;;;;4967751;28;20508;-76
2023/01/20 12:36:16;;;;;;;49.40;34.30;;;1.50;99.90;;;;;;4981683;28;20142;-75
2023/01/20 12:39:05;;;;;;;52.40;35.40;;;1.60;99.90;;;;;;4975242;28;20053;-75
2023/01/20 12:41:50;;;;;;;51.10;35.27;;;1.60;99.90;;;;;;4983252;28;20042;-77
2023/01/20 12:44:42;;;;;;;50.57;35.53;;;1.60;99.90;;;;;;4979147;28;20121;-77
2023/01/20 12:47:41;;;;;;;50.83;35.43;;;1.60;99.90;;;;;;4980980;28;20054;-77
2023/01/20 12:50:22;;;;;;;47.73;33.57;;;1.60;99.90;;;;;;4974573;28;20065;-75
2023/01/20 12:53:01;;;;;;;46.50;32.53;;;1.60;99.90;;;;;;4982098;28;20050;-75
2023/01/20 12:55:45;;;;;;;45.67;34.17;;;1.70;99.90;;;;;;4981054;28;20050;-75
2023/01/20 12:59:18;;;;;;;46.38;34.22;;;1.70;99.90;;;;;;4983418;28;20483;-75
2023/01/20 13:02:07;;;;;;;50.77;35.00;;;1.70;99.90;;;;;;4904625;29;20131;-76
2023/01/20 13:04:53;;;;;;;50.90;36.03;;;1.70;99.90;;;;;;4891406;29;20048;-75
2023/01/20 13:07:47;;;;;;;50.37;35.10;;;1.70;99.90;;;;;;4973509;28;20055;-76
2023/01/20 13:10:25;;;;;;;46.77;34.87;;;1.70;99.90;;;;;;4978411;28;20051;-75